Time;durP1;ratioP1;P1;durP2;ratioP2;P2;SDS_P1;SDS_P2;PMS_P1;PMS_P2;Temp;Humidity;BMP_temperature;BMP_pressure;BME280_temperature;BME280_humidity;BME280_pressure;Samples;Min_cycle;Max_cycle;Signal;HPM_P1;HPM_P2
2022/02/19 00:02:15;;;;;;;19.80;7.27;;;;;;;4.70;51.77;100125.41;5126640;27;20102;-76
2022/02/19 00:04:40;;;;;;;16.87;7.30;;;;;;;4.48;52.10;100112.22;5122788;28;20205;-77
2022/02/19 00:07:06;;;;;;;17.87;7.73;;;;;;;4.39;52.35;100123.38;5131921;28;20041;-78
2022/02/19 00:09:32;;;;;;;21.33;7.83;;;;;;;4.40;51.97;100107.53;5126007;27;20092;-78
2022/02/19 00:11:58;;;;;;;19.87;8.57;;;;;;;4.65;51.47;100126.69;5125062;27;20094;-77
2022/02/19 00:14:23;;;;;;;18.17;7.00;;;;;;;4.73;50.97;100132.19;5124448;28;20062;-77
2022/02/19 00:16:49;;;;;;;32.03;10.33;;;;;;;4.86;50.83;100127.69;5122473;28;20221;-77
2022/02/19 00:19:14;;;;;;;15.73;7.13;;;;;;;5.13;49.35;100130.84;5129341;28;20070;-77
2022/02/19 00:21:40;;;;;;;20.53;7.03;;;;;;;5.28;48.87;100113.09;5130851;27;20861;-77
2022/02/19 00:24:06;;;;;;;15.90;7.25;;;;;;;5.46;48.40;100118.69;5126702;27;20039;-77
2022/02/19 00:26:31;;;;;;;16.67;6.97;;;;;;;5.38;48.56;100121.94;5134120;27;20051;-78
2022/02/19 00:28:57;;;;;;;19.10;6.17;;;;;;;5.13;49.03;100098.50;5130681;27;20068;-77
2022/02/19 00:31:22;;;;;;;13.57;6.53;;;;;;;5.05;48.97;100096.47;5133248;27;20038;-78
2022/02/19 00:33:48;;;;;;;18.83;7.20;;;;;;;5.30;48.87;100116.44;5132504;27;20125;-76
2022/02/19 00:36:13;;;;;;;17.73;6.82;;;;;;;5.34;48.27;100112.63;5128283;27;20043;-78
2022/02/19 00:38:38;;;;;;;15.10;6.35;;;;;;;4.90;49.19;100113.38;5125396;28;20024;-77
2022/02/19 00:41:04;;;;;;;14.67;5.90;;;;;;;4.28;49.81;100047.31;5127859;27;20048;-77
2022/02/19 00:43:29;;;;;;;11.70;5.50;;;;;;;4.44;49.96;100084.56;5143292;27;20039;-77
2022/02/19 00:45:56;;;;;;;12.50;5.50;;;;;;;4.49;50.05;100100.78;5145757;27;20084;-77
2022/02/19 00:48:22;;;;;;;10.30;4.13;;;;;;;4.37;50.07;100096.44;5135386;27;20023;-76
2022/02/19 00:50:48;;;;;;;9.90;3.97;;;;;;;4.17;49.95;100074.34;5135163;27;20062;-76
2022/02/19 00:53:14;;;;;;;10.17;4.60;;;;;;;4.31;50.21;100100.34;5141131;27;20030;-78
2022/02/19 00:55:40;;;;;;;8.20;4.17;;;;;;;4.20;50.53;100096.88;5136873;27;20043;-77
2022/02/19 00:58:05;;;;;;;10.37;4.20;;;;;;;4.11;50.52;100100.97;5131742;27;20094;-77
2022/02/19 01:00:31;;;;;;;11.27;4.00;;;;;;;4.13;50.41;100104.31;5131394;27;20281;-77
2022/02/19 01:02:56;;;;;;;12.37;4.07;;;;;;;3.98;50.74;100114.13;5126297;27;20039;-77
2022/02/19 01:05:22;;;;;;;12.70;3.97;;;;;;;3.84;51.11;100117.75;5133712;27;20237;-76
2022/02/19 01:07:47;;;;;;;8.07;3.20;;;;;;;3.35;52.25;100091.59;5129210;27;20024;-76
2022/02/19 01:10:13;;;;;;;8.80;2.97;;;;;;;3.11;53.48;100116.81;5132773;27;20240;-77
2022/02/19 01:12:38;;;;;;;8.20;3.10;;;;;;;2.98;54.26;100101.13;5132740;27;20037;-77
2022/02/19 01:15:11;;;;;;;10.77;3.17;;;;;;;2.98;54.50;100089.81;5126679;27;20042;-77
2022/02/19 01:17:36;;;;;;;7.37;3.17;;;;;;;3.20;53.16;100097.88;5123749;28;20024;-78
2022/02/19 01:20:02;;;;;;;10.53;3.20;;;;;;;3.49;52.64;100120.25;5132628;27;20340;-76
2022/02/19 01:22:28;;;;;;;7.43;3.03;;;;;;;3.62;52.25;100120.22;5125688;27;20024;-77
2022/02/19 01:24:53;;;;;;;8.63;3.20;;;;;;;3.55;52.29;100118.13;5132159;27;20141;-77
2022/02/19 01:27:19;;;;;;;7.07;3.20;;;;;;;3.79;51.72;100116.41;5125015;28;20038;-77
2022/02/19 01:29:44;;;;;;;17.90;6.27;;;;;;;3.87;51.42;100108.81;5127103;27;20036;-77
2022/02/19 01:32:10;;;;;;;9.60;3.97;;;;;;;4.05;50.62;100117.97;5132636;27;20307;-77
2022/02/19 01:34:35;;;;;;;11.70;3.60;;;;;;;4.02;50.47;100123.44;5129508;27;20271;-77
2022/02/19 01:37:01;;;;;;;8.63;3.77;;;;;;;4.13;50.20;100120.03;5129240;28;20023;-78
2022/02/19 01:39:29;;;;;;;8.17;3.57;;;;;;;4.11;50.09;100119.31;5143841;27;20054;-77
2022/02/19 01:41:54;;;;;;;9.67;3.60;;;;;;;4.32;49.31;100093.34;5140533;27;20102;-78
2022/02/19 01:44:20;;;;;;;13.93;4.10;;;;;;;4.33;50.49;100131.72;5126733;28;20053;-78
2022/02/19 01:46:45;;;;;;;8.97;3.67;;;;;;;4.42;50.71;100136.28;5126646;28;20098;-78
2022/02/19 01:49:11;;;;;;;7.53;4.13;;;;;;;4.69;49.30;100138.63;5129618;28;20035;-77
2022/02/19 01:51:38;;;;;;;9.63;3.70;;;;;;;4.73;49.78;100143.53;5129341;28;20022;-77
2022/02/19 01:54:09;;;;;;;10.63;4.03;;;;;;;4.88;49.59;100138.91;5142029;27;20035;-77
2022/02/19 01:56:35;;;;;;;7.33;3.90;;;;;;;4.92;48.78;100121.97;5140522;27;20060;-77
2022/02/19 01:59:04;;;;;;;11.70;4.27;;;;;;;5.01;49.20;100139.66;5130448;28;20031;-78
2022/02/19 02:01:29;;;;;;;11.77;4.73;;;;;;;4.96;49.25;100136.53;5124773;28;20030;-79
2022/02/19 02:03:55;;;;;;;32.70;9.32;;;;;;;5.04;49.13;100144.66;5124479;28;20058;-79
2022/02/19 02:06:24;;;;;;;44.78;11.75;;;;;;;5.26;48.21;100130.75;5130283;28;20023;-77
2022/02/19 02:08:50;;;;;;;67.32;15.77;;;;;;;5.05;48.55;100116.63;5127248;28;20020;-78
2022/02/19 02:11:16;;;;;;;79.47;18.42;;;;;;;5.19;48.13;100116.41;5121165;28;20385;-78
2022/02/19 02:13:42;;;;;;;44.65;12.02;;;;;;;5.40;48.11;100111.31;5126020;28;20031;-77
2022/02/19 02:16:08;;;;;;;114.72;28.45;;;;;;;5.56;47.66;100127.53;5127760;27;20031;-77
2022/02/19 02:18:33;;;;;;;23.83;8.20;;;;;;;5.22;48.45;100128.50;5127791;28;20233;-78
2022/02/19 02:20:59;;;;;;;22.88;7.10;;;;;;;5.00;49.36;100127.47;5123875;28;20035;-77
2022/02/19 02:23:24;;;;;;;24.50;7.77;;;;;;;5.17;49.06;100135.84;5145336;27;20106;-77
2022/02/19 02:25:54;;;;;;;18.70;7.57;;;;;;;4.98;49.47;100134.63;5082221;28;1150490;-78
2022/02/19 02:28:20;;;;;;;19.65;8.15;;;;;;;4.44;50.77;100119.47;5123979;27;20096;-78
2022/02/19 02:30:46;;;;;;;17.47;6.70;;;;;;;4.52;50.67;100139.88;5127058;27;20027;-78
2022/02/19 02:33:16;;;;;;;16.10;6.27;;;;;;;4.68;50.08;100119.44;5129133;27;20032;-77
2022/02/19 02:35:41;;;;;;;16.27;5.97;;;;;;;4.29;51.38;100130.25;5130512;27;20248;-77
2022/02/19 02:38:08;;;;;;;16.00;6.70;;;;;;;4.27;51.91;100148.72;5133641;27;20056;-77
2022/02/19 02:40:35;;;;;;;17.47;5.60;;;;;;;4.43;51.17;100148.44;5125544;27;20031;-77
2022/02/19 02:43:01;;;;;;;13.33;5.27;;;;;;;4.36;51.47;100134.09;5131826;27;20278;-77
2022/02/19 02:45:27;;;;;;;11.53;5.10;;;;;;;4.35;51.10;100100.97;5129484;27;20062;-77
2022/02/19 02:47:52;;;;;;;18.40;5.30;;;;;;;4.71;50.86;100134.94;5129044;27;20035;-77
2022/02/19 02:50:18;;;;;;;14.80;5.27;;;;;;;5.13;49.52;100122.13;5126631;27;20034;-78
2022/02/19 02:52:43;;;;;;;15.63;5.40;;;;;;;5.02;49.26;100116.88;5128262;27;20261;-77
2022/02/19 02:55:11;;;;;;;11.80;4.60;;;;;;;4.90;49.84;100138.78;5130746;27;20044;-78
2022/02/19 02:57:38;;;;;;;17.77;6.90;;;;;;;4.80;50.16;100147.38;5135488;27;20098;-78
2022/02/19 03:00:08;;;;;;;19.73;6.53;;;;;;;4.44;50.40;100129.13;5140491;27;20062;-78
2022/02/19 03:02:34;;;;;;;15.47;6.03;;;;;;;4.43;51.24;100151.88;5132828;27;20336;-78
2022/02/19 03:05:01;;;;;;;14.83;5.73;;;;;;;4.36;51.22;100136.72;5126728;27;20099;-77
2022/02/19 03:07:27;;;;;;;15.30;5.97;;;;;;;4.30;51.80;100126.69;5128404;27;20280;-78
2022/02/19 03:09:52;;;;;;;23.07;7.67;;;;;;;4.44;51.14;100140.44;5131463;27;20099;-78
2022/02/19 03:12:19;;;;;;;25.70;8.00;;;;;;;4.53;51.39;100161.69;5123581;27;20023;-79
2022/02/19 03:14:44;;;;;;;16.37;6.53;;;;;;;4.51;50.82;100159.19;5130789;27;20031;-78
2022/02/19 03:17:10;;;;;;;18.33;7.10;;;;;;;4.66;50.69;100141.47;5125804;27;20039;-78
2022/02/19 03:19:35;;;;;;;18.67;6.03;;;;;;;4.99;49.60;100166.97;5130113;27;20316;-77
2022/02/19 03:22:00;;;;;;;19.33;7.53;;;;;;;5.03;49.44;100157.91;5129391;27;20082;-77
2022/02/19 03:24:26;;;;;;;24.20;8.73;;;;;;;5.15;48.81;100164.84;5128430;27;20027;-77
2022/02/19 03:26:51;;;;;;;19.27;7.45;;;;;;;5.30;48.96;100161.06;5127620;27;20039;-78
2022/02/19 03:29:17;;;;;;;25.48;7.38;;;;;;;5.16;48.88;100142.06;5128164;27;20023;-78
2022/02/19 03:31:42;;;;;;;22.25;7.85;;;;;;;5.32;48.77;100153.91;5129927;27;20039;-78
2022/02/19 03:34:08;;;;;;;16.08;5.93;;;;;;;5.26;48.98;100148.31;5129451;27;20035;-78
2022/02/19 03:36:33;;;;;;;12.95;5.95;;;;;;;5.28;48.67;100172.66;5125474;27;20081;-78
2022/02/19 03:38:58;;;;;;;16.40;7.50;;;;;;;5.30;48.86;100173.38;5132358;27;20031;-78
2022/02/19 03:41:24;;;;;;;20.60;7.47;;;;;;;5.19;49.31;100168.06;5124660;27;20031;-77
2022/02/19 03:43:49;;;;;;;18.63;7.73;;;;;;;5.11;49.54;100155.53;5128978;27;20023;-77
2022/02/19 03:46:15;;;;;;;17.47;7.93;;;;;;;5.07;49.79;100159.34;5126992;27;20050;-78
2022/02/19 03:48:40;;;;;;;21.57;8.53;;;;;;;5.11;49.25;100158.16;5129862;27;20015;-78
2022/02/19 03:51:06;;;;;;;22.43;8.43;;;;;;;5.14;49.58;100171.88;5126716;27;20043;-77
2022/02/19 03:53:31;;;;;;;28.80;8.88;;;;;;;4.93;49.58;100170.06;5126001;27;20570;-76
2022/02/19 03:55:57;;;;;;;19.27;8.93;;;;;;;4.72;50.44;100170.72;5125075;27;20015;-77
2022/02/19 03:58:22;;;;;;;23.17;9.87;;;;;;;4.80;50.41;100180.63;5128669;27;20027;-77
2022/02/19 04:00:48;;;;;;;23.43;9.53;;;;;;;4.76;50.33;100169.53;5122845;27;20027;-77
2022/02/19 04:03:13;;;;;;;22.87;9.87;;;;;;;4.76;50.20;100169.53;5120449;28;20027;-77
2022/02/19 04:05:39;;;;;;;34.70;13.43;;;;;;;4.63;50.88;100175.81;5127222;27;20028;-77
2022/02/19 04:08:06;;;;;;;34.03;14.30;;;;;;;4.56;51.00;100179.84;5125293;27;20486;-77
2022/02/19 04:10:32;;;;;;;39.33;14.03;;;;;;;4.55;50.99;100175.53;5127393;27;20023;-77
2022/02/19 04:12:57;;;;;;;23.07;9.73;;;;;;;4.27;52.10;100172.31;5124479;28;20233;-77
2022/02/19 04:15:23;;;;;;;22.53;8.80;;;;;;;4.54;51.24;100184.34;5128877;28;20090;-77
2022/02/19 04:17:48;;;;;;;19.00;7.50;;;;;;;4.56;51.01;100170.19;5139030;27;20032;-77
2022/02/19 04:20:15;;;;;;;18.63;6.83;;;;;;;4.54;50.38;100156.34;5126564;28;20252;-77
2022/02/19 04:22:41;;;;;;;23.67;8.97;;;;;;;4.54;50.81;100169.44;5128105;28;20035;-76
2022/02/19 04:25:10;;;;;;;25.40;8.03;;;;;;;4.64;50.69;100174.84;5121858;27;20207;-77
2022/02/19 04:27:36;;;;;;;24.27;8.67;;;;;;;4.58;50.64;100185.81;5120116;28;20099;-78
2022/02/19 04:30:03;;;;;;;19.10;8.57;;;;;;;4.54;51.32;100185.19;5123616;28;20333;-77
2022/02/19 04:32:29;;;;;;;24.87;8.80;;;;;;;4.54;50.82;100166.00;5131335;28;20221;-77
2022/02/19 04:34:55;;;;;;;35.87;11.97;;;;;;;4.62;50.46;100161.03;5130483;27;20109;-77
2022/02/19 04:37:20;;;;;;;33.40;12.73;;;;;;;4.48;50.94;100149.75;5126813;27;20363;-78
2022/02/19 04:39:46;;;;;;;38.63;14.50;;;;;;;4.58;51.00;100170.06;5144806;27;20317;-78
2022/02/19 04:42:12;;;;;;;39.73;15.13;;;;;;;4.33;51.78;100169.25;5128582;27;20043;-78
2022/02/19 04:44:38;;;;;;;50.70;20.40;;;;;;;4.33;52.00;100165.78;5124787;28;20039;-78
2022/02/19 04:47:04;;;;;;;56.40;21.27;;;;;;;4.36;51.58;100139.34;5128066;28;20337;-77
2022/02/19 04:49:30;;;;;;;70.73;25.33;;;;;;;4.52;50.92;100152.16;5128441;27;20212;-78
2022/02/19 04:51:56;;;;;;;104.37;33.33;;;;;;;4.55;51.31;100163.25;5130552;27;20054;-78
2022/02/19 04:54:21;;;;;;;75.63;23.90;;;;;;;4.59;51.09;100158.63;5123855;28;20043;-78
2022/02/19 04:56:46;;;;;;;69.90;24.35;;;;;;;4.58;51.07;100164.81;5124788;28;20325;-77
2022/02/19 04:59:12;;;;;;;44.10;16.77;;;;;;;4.53;51.39;100170.41;5128352;28;20039;-78
2022/02/19 05:01:38;;;;;;;44.17;16.27;;;;;;;4.43;51.48;100166.78;5128087;27;21269;-78
2022/02/19 05:04:03;;;;;;;40.33;14.55;;;;;;;4.43;51.18;100156.28;5124751;28;20065;-78
2022/02/19 05:06:29;;;;;;;33.33;13.83;;;;;;;4.42;51.52;100179.06;5126006;28;20040;-78
2022/02/19 05:08:54;;;;;;;31.73;13.00;;;;;;;4.19;52.07;100174.66;5130041;27;20031;-77
2022/02/19 05:11:20;;;;;;;29.13;12.43;;;;;;;4.02;52.53;100169.75;5126618;27;20035;-78
2022/02/19 05:13:45;;;;;;;39.00;16.47;;;;;;;4.28;52.21;100194.97;5129206;27;20283;-78
2022/02/19 05:16:11;;;;;;;38.03;16.83;;;;;;;4.39;51.65;100192.41;5123941;27;20034;-78
2022/02/19 05:18:36;;;;;;;35.73;15.13;;;;;;;4.38;51.53;100182.84;5124637;28;20291;-78
2022/02/19 05:21:02;;;;;;;34.30;11.67;;;;;;;4.39;51.82;100205.50;5132154;27;20036;-78
2022/02/19 05:23:27;;;;;;;23.97;8.00;;;;;;;3.88;52.76;100188.25;5128582;27;20038;-78
2022/02/19 05:25:52;;;;;;;23.17;6.57;;;;;;;3.70;53.74;100213.94;5128332;27;20043;-77
2022/02/19 05:28:18;;;;;;;13.67;6.80;;;;;;;3.79;53.63;100208.91;5128116;27;20028;-78
2022/02/19 05:30:43;;;;;;;18.67;7.20;;;;;;;3.70;53.39;100198.25;5126160;27;20042;-77
2022/02/19 05:33:09;;;;;;;33.83;12.83;;;;;;;3.74;53.71;100207.56;5132632;27;20148;-78
2022/02/19 05:35:34;;;;;;;29.67;11.93;;;;;;;3.77;53.75;100215.19;5127972;27;20028;-78
2022/02/19 05:38:00;;;;;;;45.37;16.03;;;;;;;4.04;53.31;100215.88;5124946;27;20036;-78
2022/02/19 05:40:26;;;;;;;90.70;25.30;;;;;;;4.09;53.15;100219.00;5125991;27;20031;-77
2022/02/19 05:42:51;;;;;;;79.30;23.35;;;;;;;4.08;52.92;100212.09;5124688;28;20028;-78
2022/02/19 05:45:17;;;;;;;53.55;17.52;;;;;;;4.30;52.50;100203.53;5124582;27;20028;-77
2022/02/19 05:47:42;;;;;;;51.40;13.63;;;;;;;4.42;52.37;100214.94;5124544;27;20031;-77
2022/02/19 05:50:08;;;;;;;28.58;10.02;;;;;;;4.40;52.17;100214.22;5125962;27;20042;-77
2022/02/19 05:52:34;;;;;;;17.83;8.80;;;;;;;4.78;51.62;100240.25;5125904;27;20220;-77
2022/02/19 05:54:59;;;;;;;31.90;9.68;;;;;;;4.75;51.43;100249.19;5124451;27;20032;-77
2022/02/19 05:57:25;;;;;;;50.10;12.82;;;;;;;4.56;51.78;100235.75;5125757;27;20039;-78
2022/02/19 05:59:51;;;;;;;44.50;11.95;;;;;;;4.68;51.71;100236.63;5125660;27;20043;-77
2022/02/19 06:02:17;;;;;;;32.28;8.85;;;;;;;4.26;52.70;100249.28;5125328;27;20082;-78
2022/02/19 06:04:43;;;;;;;33.92;12.82;;;;;;;4.00;54.01;100248.47;5125727;27;20032;-78
2022/02/19 06:07:09;;;;;;;36.33;13.75;;;;;;;3.78;53.90;100217.72;5124232;27;20116;-78
2022/02/19 06:09:34;;;;;;;23.70;9.43;;;;;;;4.18;53.41;100250.78;5125417;27;20030;-78
2022/02/19 06:12:00;;;;;;;26.77;7.97;;;;;;;4.35;53.42;100253.88;5125471;27;20219;-78
2022/02/19 06:14:25;;;;;;;33.83;11.80;;;;;;;4.57;52.97;100257.56;5125098;27;20047;-78
2022/02/19 06:16:51;;;;;;;20.90;6.78;;;;;;;4.49;53.77;100263.34;5125180;27;20356;-78
2022/02/19 06:19:17;;;;;;;17.17;5.47;;;;;;;4.24;54.61;100261.66;5124549;27;20042;-78
2022/02/19 06:21:42;;;;;;;10.68;4.72;;;;;;;4.55;53.63;100241.09;5123389;27;20038;-78
2022/02/19 06:24:08;;;;;;;24.03;7.23;;;;;;;4.71;53.86;100245.13;5123972;27;20031;-77
2022/02/19 06:26:33;;;;;;;14.88;5.75;;;;;;;4.46;54.39;100234.75;5127126;27;20044;-77
2022/02/19 06:28:59;;;;;;;26.05;8.77;;;;;;;4.95;53.37;100249.50;5131249;27;20035;-77
2022/02/19 06:31:25;;;;;;;35.25;10.90;;;;;;;5.11;52.79;100245.63;5126925;27;20107;-77
2022/02/19 06:33:51;;;;;;;24.40;7.05;;;;;;;5.13;52.23;100243.72;5126008;27;20023;-78
2022/02/19 06:36:17;;;;;;;22.13;6.43;;;;;;;5.02;51.97;100233.19;5127422;27;20262;-78
2022/02/19 06:38:43;;;;;;;23.42;6.38;;;;;;;5.57;51.08;100249.19;5127757;27;20210;-78
2022/02/19 06:41:10;;;;;;;14.77;5.30;;;;;;;5.68;50.69;100249.22;5121619;28;20341;-78
2022/02/19 06:43:36;;;;;;;18.42;6.30;;;;;;;5.69;50.33;100267.47;5124607;27;20012;-78
2022/02/19 06:46:02;;;;;;;14.88;6.03;;;;;;;5.86;50.53;100250.41;5134779;27;20031;-78
2022/02/19 06:48:27;;;;;;;42.88;9.52;;;;;;;6.04;50.34;100272.66;5123741;27;20066;-77
2022/02/19 06:50:53;;;;;;;11.57;4.57;;;;;;;6.48;49.08;100267.50;5127687;27;20078;-78
2022/02/19 06:53:19;;;;;;;17.42;5.35;;;;;;;6.53;48.10;100213.53;5131551;27;20027;-77
2022/02/19 06:55:45;;;;;;;12.90;5.65;;;;;;;7.00;47.57;100258.81;5143649;27;20069;-78
2022/02/19 06:58:11;;;;;;;21.33;6.95;;;;;;;7.40;47.31;100261.63;5131419;27;20262;-78
2022/02/19 07:00:36;;;;;;;22.90;8.18;;;;;;;8.10;44.97;100260.03;5125184;27;20263;-78
2022/02/19 07:03:01;;;;;;;28.85;10.05;;;;;;;8.75;43.49;100262.16;5129593;27;20049;-78
2022/02/19 07:05:27;;;;;;;19.17;7.85;;;;;;;9.04;42.37;100238.41;5125584;27;20030;-78
2022/02/19 07:07:52;;;;;;;18.23;7.53;;;;;;;9.03;42.32;100230.63;5125440;27;20047;-78
2022/02/19 07:10:18;;;;;;;18.35;7.65;;;;;;;9.28;41.99;100246.72;5126505;27;20129;-78
2022/02/19 07:12:44;;;;;;;18.23;7.22;;;;;;;9.96;40.55;100254.47;5134421;27;20300;-78
2022/02/19 07:15:11;;;;;;;25.08;9.50;;;;;;;10.32;39.66;100238.75;5143097;27;20308;-79
2022/02/19 07:17:53;;;;;;;22.45;8.98;;;;;;;10.59;38.67;100228.13;5123708;27;20041;-78
2022/02/19 07:20:21;;;;;;;18.50;7.60;;;;;;;10.82;38.24;100239.94;5130970;27;20030;-78
2022/02/19 07:22:48;;;;;;;16.55;6.82;;;;;;;10.63;37.93;100197.72;5130241;27;20034;-78
2022/02/19 07:25:13;;;;;;;17.83;6.95;;;;;;;10.64;38.99;100225.03;5130721;27;20042;-78
2022/02/19 07:27:40;;;;;;;16.58;6.90;;;;;;;10.36;39.53;100230.34;5126127;27;20039;-78
2022/02/19 07:30:08;;;;;;;21.98;6.05;;;;;;;10.01;39.97;100232.88;5128683;27;20107;-78
2022/02/19 07:32:37;;;;;;;15.32;5.68;;;;;;;9.97;40.45;100234.16;5129078;27;20252;-78
2022/02/19 07:35:04;;;;;;;15.82;5.85;;;;;;;9.91;40.92;100235.56;5125761;27;20035;-78
2022/02/19 07:37:30;;;;;;;17.67;7.10;;;;;;;10.07;40.78;100240.22;5123192;27;20043;-78
2022/02/19 07:39:56;;;;;;;19.10;7.03;;;;;;;10.21;39.87;100231.84;5121937;28;20024;-78
2022/02/19 07:42:21;;;;;;;16.58;7.32;;;;;;;9.93;40.33;100242.38;5127268;27;20031;-78
2022/02/19 07:44:47;;;;;;;21.23;8.30;;;;;;;10.06;39.62;100249.16;5127365;27;20125;-77
2022/02/19 07:47:23;;;;;;;21.10;7.78;;;;;;;10.39;39.37;100256.53;5125851;27;20035;-78
2022/02/19 07:58:19;;;;;;;20.77;8.30;;;;;;;11.80;36.34;100260.13;5129201;27;20073;-78
2022/02/19 08:00:44;;;;;;;18.77;7.65;;;;;;;11.97;36.55;100265.53;5129933;27;20351;-78
2022/02/19 08:03:10;;;;;;;51.65;12.02;;;;;;;12.25;34.09;100261.66;5125428;27;20041;-78
2022/02/19 08:05:36;;;;;;;20.17;7.43;;;;;;;12.53;33.95;100269.41;5128832;27;20023;-78
2022/02/19 08:08:01;;;;;;;20.50;7.47;;;;;;;12.56;34.62;100269.94;5128720;27;20080;-78
2022/02/19 08:10:26;;;;;;;16.40;7.63;;;;;;;12.26;34.69;100267.81;5125263;28;20042;-78
2022/02/19 08:12:52;;;;;;;15.63;7.07;;;;;;;11.97;35.43;100254.91;5125835;28;20038;-78
2022/02/19 08:15:17;;;;;;;17.20;7.03;;;;;;;11.91;35.73;100268.81;5127143;27;20031;-78
2022/02/19 08:17:43;;;;;;;13.55;6.32;;;;;;;11.82;34.97;100259.97;5125577;28;20024;-78
2022/02/19 08:20:08;;;;;;;19.83;6.70;;;;;;;11.90;35.47;100270.63;5125828;28;20047;-78
2022/02/19 08:22:34;;;;;;;17.38;6.00;;;;;;;11.70;35.16;100254.06;5127642;27;20317;-78
2022/02/19 08:24:59;;;;;;;16.90;6.95;;;;;;;11.87;35.47;100268.28;5130003;28;20621;-78
2022/02/19 08:27:25;;;;;;;15.65;6.70;;;;;;;11.89;34.30;100268.97;5124621;28;20066;-78
2022/02/19 08:29:50;;;;;;;17.10;7.43;;;;;;;12.25;34.23;100264.31;5123972;27;20243;-78
2022/02/19 08:32:16;;;;;;;19.73;7.85;;;;;;;12.46;34.06;100254.09;5125003;28;20339;-78
2022/02/19 08:34:41;;;;;;;21.58;7.65;;;;;;;12.24;34.80;100259.16;5122543;28;20031;-78
2022/02/19 08:37:07;;;;;;;17.90;8.73;;;;;;;12.10;35.02;100260.59;5124267;28;20217;-78
2022/02/19 08:39:32;;;;;;;17.70;8.18;;;;;;;12.08;34.72;100252.81;5125449;28;20031;-75
2022/02/19 08:41:58;;;;;;;19.98;8.48;;;;;;;12.10;34.30;100255.28;5127874;27;20065;-76
2022/02/19 08:44:23;;;;;;;23.13;9.43;;;;;;;12.45;33.78;100264.88;5127836;27;20103;-78
2022/02/19 08:46:48;;;;;;;25.60;9.07;;;;;;;12.78;33.86;100236.59;5129629;27;20103;-78
2022/02/19 08:49:14;;;;;;;20.17;9.95;;;;;;;12.75;33.52;100258.19;5125031;28;20040;-78
2022/02/19 08:51:39;;;;;;;20.67;10.13;;;;;;;12.63;34.11;100264.81;5129331;27;20035;-78
2022/02/19 08:54:05;;;;;;;31.00;12.70;;;;;;;12.34;34.54;100260.69;5135448;27;20046;-78
2022/02/19 08:56:30;;;;;;;40.92;13.75;;;;;;;13.05;33.74;100259.38;5144291;27;20325;-78
2022/02/19 08:58:56;;;;;;;27.13;11.15;;;;;;;13.31;33.14;100253.91;5141190;27;20031;-78
2022/02/19 09:01:21;;;;;;;50.42;17.38;;;;;;;13.54;32.81;100259.41;5126827;27;20040;-78
2022/02/19 09:03:47;;;;;;;24.75;10.20;;;;;;;13.63;32.47;100251.25;5126002;27;20035;-78
2022/02/19 09:06:12;;;;;;;19.25;7.90;;;;;;;13.98;32.42;100249.16;5129919;27;20036;-79
2022/02/19 09:08:38;;;;;;;16.85;7.18;;;;;;;13.77;33.06;100233.75;5128678;27;20030;-78
2022/02/19 09:11:05;;;;;;;20.63;8.98;;;;;;;13.37;32.31;100239.94;5144810;27;20080;-77
2022/02/19 09:13:30;;;;;;;20.30;7.60;;;;;;;12.70;33.59;100244.56;5145270;27;20042;-77
2022/02/19 09:15:56;;;;;;;18.83;7.65;;;;;;;13.05;32.98;100249.56;5132291;27;20077;-77
2022/02/19 09:18:22;;;;;;;20.52;7.50;;;;;;;13.31;32.84;100249.44;5133413;27;20034;-78
2022/02/19 09:20:47;;;;;;;19.50;7.50;;;;;;;13.06;33.00;100221.16;5125631;27;20046;-78
2022/02/19 09:23:13;;;;;;;20.95;7.53;;;;;;;13.60;32.35;100253.41;5126355;27;20065;-78
2022/02/19 09:25:38;;;;;;;19.67;7.35;;;;;;;13.98;31.66;100249.16;5124712;27;20047;-78
2022/02/19 09:28:04;;;;;;;17.10;7.50;;;;;;;13.55;32.01;100229.16;5125934;27;20099;-78
2022/02/19 09:30:29;;;;;;;25.65;7.53;;;;;;;13.70;32.56;100252.22;5126292;27;20032;-78
2022/02/19 09:32:58;;;;;;;18.80;6.88;;;;;;;13.80;31.98;100246.72;5126225;27;20043;-77
2022/02/19 09:35:24;;;;;;;16.27;6.82;;;;;;;13.34;32.02;100246.44;5124598;28;20398;-78
2022/02/19 09:37:49;;;;;;;13.95;6.00;;;;;;;13.19;32.73;100240.13;5126045;28;20055;-78
2022/02/19 09:40:15;;;;;;;15.13;6.28;;;;;;;13.54;32.56;100233.63;5126031;28;20090;-76
2022/02/19 09:42:40;;;;;;;15.18;7.13;;;;;;;13.70;31.55;100236.25;5124977;27;20073;-77
2022/02/19 09:45:07;;;;;;;23.98;9.15;;;;;;;13.87;32.29;100233.56;5125543;28;20202;-77
2022/02/19 09:47:34;;;;;;;17.52;7.10;;;;;;;13.68;31.54;100234.78;5125849;27;20036;-76
2022/02/19 09:50:00;;;;;;;16.20;8.00;;;;;;;12.97;32.29;100240.75;5125775;27;20023;-77
2022/02/19 09:52:27;;;;;;;19.10;8.32;;;;;;;12.98;32.55;100224.66;5124303;28;20091;-77
2022/02/19 09:54:57;;;;;;;22.20;8.10;;;;;;;13.02;31.70;100193.25;5125429;27;20039;-77
2022/02/19 09:57:23;;;;;;;22.45;8.45;;;;;;;13.14;32.24;100226.47;5125805;27;20043;-77
2022/02/19 09:59:48;;;;;;;17.95;7.50;;;;;;;13.03;33.11;100229.47;5125134;27;20035;-77
2022/02/19 10:02:14;;;;;;;20.30;7.32;;;;;;;12.44;33.84;100232.19;5125439;28;20032;-76
2022/02/19 10:04:44;;;;;;;17.33;8.63;;;;;;;12.69;34.24;100242.88;5125804;27;20058;-77
2022/02/19 10:07:17;;;;;;;17.77;7.63;;;;;;;12.91;32.91;100239.59;5131647;27;20095;-77
2022/02/19 10:09:47;;;;;;;20.17;8.75;;;;;;;12.85;32.94;100218.16;5143601;27;20050;-78
2022/02/19 10:12:15;;;;;;;20.17;8.50;;;;;;;12.35;33.07;100171.25;5143971;27;20058;-77
2022/02/19 10:14:42;;;;;;;17.98;8.55;;;;;;;12.39;34.14;100231.00;5144844;27;20037;-77
2022/02/19 10:17:16;;;;;;;17.02;6.68;;;;;;;12.42;33.27;100212.09;5145074;27;20317;-76
2022/02/19 10:20:05;;;;;;;14.13;6.50;;;;;;;12.24;34.16;100212.22;5145280;27;20034;-77
2022/02/19 10:22:37;;;;;;;20.50;8.80;;;;;;;12.36;34.07;100212.75;5143975;27;20432;-77
2022/02/19 10:25:08;;;;;;;22.30;7.90;;;;;;;12.68;33.37;100199.56;5144492;27;20052;-77
2022/02/19 10:27:45;;;;;;;21.88;8.80;;;;;;;12.81;33.21;100201.72;5144547;27;20325;-77
2022/02/19 10:30:22;;;;;;;17.90;8.57;;;;;;;13.01;33.62;100200.38;5123233;27;20043;-78
2022/02/19 10:32:53;;;;;;;18.77;7.63;;;;;;;13.00;32.71;100195.25;5124442;27;20191;-78
2022/02/19 10:35:20;;;;;;;12.70;7.50;;;;;;;12.71;32.58;100177.13;5136113;27;20035;-77
2022/02/19 10:37:49;;;;;;;18.60;7.60;;;;;;;13.02;31.99;100174.63;5141319;27;20027;-77
2022/02/19 10:40:33;;;;;;;22.63;7.45;;;;;;;13.17;31.83;100169.50;5142236;27;20241;-77
2022/02/19 10:43:02;;;;;;;18.08;7.22;;;;;;;13.40;32.56;100179.25;5141822;27;20443;-77
2022/02/19 10:45:28;;;;;;;20.60;8.23;;;;;;;13.36;32.39;100177.13;5140890;27;20027;-78
2022/02/19 10:48:21;;;;;;;13.77;7.47;;;;;;;13.28;32.78;100171.81;5134803;27;20132;-77
2022/02/19 10:50:48;;;;;;;20.95;7.47;;;;;;;13.31;32.05;100171.47;5129613;27;20099;-78
2022/02/19 10:53:25;;;;;;;16.65;7.25;;;;;;;13.24;32.11;100165.16;5134640;27;20031;-77
2022/02/19 10:55:52;;;;;;;15.50;5.65;;;;;;;13.40;32.72;100154.50;5136052;27;20058;-77
2022/02/19 10:58:18;;;;;;;10.82;4.78;;;;;;;13.62;31.67;100150.31;5140256;27;20034;-78
2022/02/19 11:00:44;;;;;;;12.18;4.90;;;;;;;13.50;31.66;100148.97;5140757;27;20026;-79
2022/02/19 11:03:11;;;;;;;12.52;4.18;;;;;;;13.62;32.49;100135.16;5141021;27;20064;-78
2022/02/19 11:05:38;;;;;;;10.98;4.57;;;;;;;13.57;31.95;100118.06;5142058;27;20026;-78
2022/02/19 11:08:04;;;;;;;13.25;4.63;;;;;;;13.84;32.45;100143.41;5140487;27;20027;-78
2022/02/19 11:10:33;;;;;;;13.55;4.65;;;;;;;13.66;32.68;100136.47;5141845;27;20035;-78
2022/02/19 11:12:59;;;;;;;12.55;4.97;;;;;;;13.46;32.89;100135.19;5140999;27;20140;-78
2022/02/19 11:15:25;;;;;;;18.80;4.43;;;;;;;13.67;32.23;100143.47;5140890;27;20094;-77
2022/02/19 11:17:52;;;;;;;13.30;4.90;;;;;;;13.57;32.16;100126.03;5143033;27;20855;-78
2022/02/19 11:20:19;;;;;;;12.00;4.97;;;;;;;13.53;32.60;100116.75;5139214;27;20015;-78
2022/02/19 11:22:44;;;;;;;17.10;5.85;;;;;;;13.72;31.64;100117.16;5141771;27;20029;-78
2022/02/19 11:25:21;;;;;;;10.88;4.60;;;;;;;13.93;31.98;100108.56;5140761;27;20059;-79
2022/02/19 11:28:05;;;;;;;11.57;3.60;;;;;;;14.29;30.59;100108.03;5141198;27;20023;-78